Terminal Aerodrome Forecast
Issued by NWS Green Bay, WI

Home | Current Version | Previous Version | Graphics & Text | Print | Product List | Glossary On
Versions: 1 2 3 4 5 6 7 8 9 10 11 12 13 14 15 16 17 18 19 20 21 22 23 24 25 26 27 28 29 30 31 32 33 34 35 36 37 38 39 40 41 42 43
000
FTUS43 KGRB 282300 RRA
TAFGRB
TAF
KGRB 282343Z 2900/2924 16004KT 6SM -SN BR SCT020 OVC035
      TEMPO 2900/2901 2SM -SN OVC020
     FM290200 16004KT P6SM SCT020 OVC050
      TEMPO 2902/2906 5SM -PLSN BR BKN020
     FM290600 16004KT 3SM BR BKN020 OVC100
      TEMPO 2906/2910 -FZDZ
     FM291600 18008KT 5SM HZ BKN020
     FM292000 20008KT P6SM SCT020=

USA.gov is the U.S. government's official web portal to all federal, state and local government web resources and services.